Time,TemperatureF,DewpointF,PressureIn,WindDirection,WindDirectionDegrees,WindSpeedMPH,WindSpeedGustMPH,Humidity,HourlyPrecipIn,Conditions,Clouds,dailyrainin,SoftwareType,DateUTC
2014-01-03 00:02:00,24.7,15.7,30.25,NW,318,2.0,3.0,68,0.00,,OVC095,0.00,VWS V14.01,2014-01-03 05:02:00,
2014-01-03 00:03:00,24.7,15.7,30.25,NW,323,2.0,3.0,68,0.00,,OVC095,0.00,VWS V14.01,2014-01-03 05:03:00,
2014-01-03 00:05:00,24.7,15.7,30.25,NNE,15,7.0,7.0,68,0.00,,CLR,0.00,VWS V14.01,2014-01-03 05:05:00,
2014-01-03 00:08:00,24.7,16.0,30.25,NNW,331,8.0,12.0,69,0.00,,OVC095,0.00,VWS V14.01,2014-01-03 05:08:00,
2014-01-03 00:10:00,24.7,15.7,30.25,NW,312,3.0,9.0,68,0.00,,CLR,0.00,VWS V14.01,2014-01-03 05:10:00,
2014-01-03 00:13:00,24.7,16.3,30.26,West,270,6.0,8.0,70,0.00,,OVC095,0.00,VWS V14.01,2014-01-03 05:13:00,
2014-01-03 00:15:00,24.8,16.4,30.26,NW,316,4.0,7.0,70,0.00,,CLR,0.00,VWS V14.01,2014-01-03 05:15:00,
2014-01-03 00:18:00,24.8,16.4,30.26,NW,318,5.0,7.0,70,0.00,,OVC095,0.00,VWS V14.01,2014-01-03 05:18:00,
2014-01-03 00:20:00,24.8,16.4,30.26,NNW,327,4.0,6.0,70,0.00,,CLR,0.00,VWS V14.01,2014-01-03 05:20:00,
2014-01-03 00:23:00,24.7,16.0,30.25,NW,310,2.0,4.0,69,0.00,,OVC095,0.00,VWS V14.01,2014-01-03 05:23:00,
2014-01-03 00:25:00,24.7,16.3,30.26,NNW,330,4.0,5.0,70,0.00,,CLR,0.00,VWS V14.01,2014-01-03 05:25:00,
2014-01-03 00:28:00,24.7,16.0,30.26,NW,318,3.0,11.0,69,0.00,,OVC095,0.00,VWS V14.01,2014-01-03 05:28:00,
2014-01-03 00:30:00,24.7,16.3,30.26,WNW,292,8.0,8.0,70,0.00,,CLR,0.00,VWS V14.01,2014-01-03 05:30:00,
2014-01-03 00:33:00,24.7,16.3,30.26,NW,308,2.0,10.0,70,0.00,,OVC095,0.00,VWS V14.01,2014-01-03 05:33:00,
2014-01-03 00:35:00,24.7,16.3,30.26,WNW,283,3.0,6.0,70,0.00,,CLR,0.00,VWS V14.01,2014-01-03 05:35:00,
2014-01-03 00:38:00,24.7,17.3,30.27,West,274,7.0,9.0,73,0.00,,OVC095,0.00,VWS V14.01,2014-01-03 05:38:00,
2014-01-03 00:40:00,24.7,17.3,30.27,WSW,256,4.0,7.0,73,0.00,,CLR,0.00,VWS V14.01,2014-01-03 05:40:00,
2014-01-03 00:43:00,24.4,17.3,30.26,WSW,258,6.0,9.0,74,0.00,,OVC095,0.00,VWS V14.01,2014-01-03 05:43:00,
2014-01-03 00:45:00,24.4,17.3,30.27,WNW,288,3.0,8.0,74,0.00,,CLR,0.00,VWS V14.01,2014-01-03 05:45:00,
2014-01-03 00:49:00,24.3,17.2,30.26,North,8,8.0,14.0,74,0.00,,OVC095,0.00,VWS V14.01,2014-01-03 05:49:00,
2014-01-03 00:50:00,24.3,16.3,30.26,WNW,303,3.0,9.0,71,0.00,,CLR,0.00,VWS V14.01,2014-01-03 05:50:00,
2014-01-03 00:54:00,24.3,16.3,30.27,NW,326,3.0,5.0,71,0.00,,OVC095,0.00,VWS V14.01,2014-01-03 05:54:00,
2014-01-03 00:55:00,24.3,16.3,30.27,NW,325,5.0,7.0,71,0.00,,CLR,0.00,VWS V14.01,2014-01-03 05:55:00,
2014-01-03 00:59:00,24.3,16.3,30.27,WNW,297,3.0,6.0,71,0.00,,OVC095,0.00,VWS V14.01,2014-01-03 05:59:00,
2014-01-03 01:00:00,24.4,16.4,30.27,NW,306,4.0,11.0,71,0.00,,CLR,0.00,VWS V14.01,2014-01-03 06:00:00,
2014-01-03 01:04:00,24.4,16.4,30.28,NNW,337,4.0,7.0,71,0.00,,OVC095,0.00,VWS V14.01,2014-01-03 06:04:00,
2014-01-03 01:05:00,24.4,15.7,30.28,WNW,288,4.0,16.0,69,0.00,,CLR,0.00,VWS V14.01,2014-01-03 06:05:00,
2014-01-03 01:09:00,24.4,16.0,30.28,North,350,6.0,6.0,70,0.00,,OVC095,0.00,VWS V14.01,2014-01-03 06:09:00,
2014-01-03 01:10:00,24.3,15.6,30.28,NW,311,6.0,12.0,69,0.00,,CLR,0.00,VWS V14.01,2014-01-03 06:10:00,
2014-01-03 01:14:00,24.2,16.2,30.28,WNW,303,4.0,4.0,71,0.00,,OVC095,0.00,VWS V14.01,2014-01-03 06:14:00,
2014-01-03 01:15:00,24.2,16.5,30.28,NNE,21,6.0,8.0,72,0.00,,CLR,0.00,VWS V14.01,2014-01-03 06:15:00,
2014-01-03 01:19:00,24.1,16.7,30.28,NNW,327,3.0,6.0,73,0.00,,OVC095,0.00,VWS V14.01,2014-01-03 06:19:00,
2014-01-03 01:20:00,24.0,16.9,30.28,NW,317,6.0,6.0,74,0.00,,CLR,0.00,VWS V14.01,2014-01-03 06:20:00,
2014-01-03 01:24:00,23.9,16.8,30.28,NNW,330,9.0,9.0,74,0.00,,OVC095,0.00,VWS V14.01,2014-01-03 06:24:00,
2014-01-03 01:25:00,23.8,16.7,30.28,WNW,289,7.0,9.0,74,0.00,,CLR,0.00,VWS V14.01,2014-01-03 06:25:00,
2014-01-03 01:29:00,23.6,16.2,30.28,NW,325,11.0,13.0,73,0.00,,OVC095,0.00,VWS V14.01,2014-01-03 06:29:00,
2014-01-03 01:30:00,23.5,16.1,30.29,NNE,12,7.0,7.0,73,0.00,,CLR,0.00,VWS V14.01,2014-01-03 06:30:00,
2014-01-03 01:34:00,23.4,16.0,30.29,NNW,329,4.0,9.0,73,0.00,,OVC095,0.00,VWS V14.01,2014-01-03 06:34:00,
2014-01-03 01:35:00,23.4,16.4,30.29,NW,306,5.0,9.0,74,0.00,,CLR,0.00,VWS V14.01,2014-01-03 06:35:00,
2014-01-03 01:39:00,23.4,16.4,30.29,WNW,299,2.0,5.0,74,0.00,,OVC095,0.00,VWS V14.01,2014-01-03 06:39:00,
2014-01-03 01:40:00,23.4,16.7,30.29,North,359,4.0,4.0,75,0.00,,CLR,0.00,VWS V14.01,2014-01-03 06:40:00,
2014-01-03 01:44:00,23.3,15.9,30.29,NNW,338,6.0,6.0,73,0.00,,OVC095,0.00,VWS V14.01,2014-01-03 06:44:00,
2014-01-03 01:45:00,23.2,15.8,30.29,North,4,5.0,7.0,73,0.00,,CLR,0.00,VWS V14.01,2014-01-03 06:45:00,
2014-01-03 01:49:00,23.1,15.8,30.29,NNW,348,4.0,11.0,73,0.00,,OVC095,0.00,VWS V14.01,2014-01-03 06:49:00,
2014-01-03 01:50:00,23.1,15.4,30.29,SSW,207,3.0,7.0,72,0.00,,CLR,0.00,VWS V14.01,2014-01-03 06:50:00,
2014-01-03 01:54:00,23.1,15.1,30.29,NW,304,5.0,5.0,71,0.00,,OVC095,0.00,VWS V14.01,2014-01-03 06:54:00,
2014-01-03 01:55:00,23.2,15.5,30.30,NNW,333,3.0,9.0,72,0.00,,CLR,0.00,VWS V14.01,2014-01-03 06:55:00,
2014-01-03 01:59:00,23.2,15.5,30.30,NW,312,3.0,6.0,72,0.00,,OVC095,0.00,VWS V14.01,2014-01-03 06:59:00,
2014-01-03 02:00:00,23.3,15.3,30.30,NNW,332,6.0,6.0,71,0.00,,CLR,0.00,VWS V14.01,2014-01-03 07:00:00,
2014-01-03 02:04:00,23.1,15.1,30.29,North,354,8.0,9.0,71,0.00,,OVC095,0.00,VWS V14.01,2014-01-03 07:04:00,
2014-01-03 02:05:00,23.1,14.8,30.30,NNW,328,1.0,8.0,70,0.00,,CLR,0.00,VWS V14.01,2014-01-03 07:05:00,
2014-01-03 02:09:00,23.0,15.0,30.30,WNW,302,3.0,3.0,71,0.00,,OVC095,0.00,VWS V14.01,2014-01-03 07:09:00,
2014-01-03 02:10:00,23.0,15.3,30.30,WNW,302,5.0,5.0,72,0.00,,CLR,0.00,VWS V14.01,2014-01-03 07:10:00,
2014-01-03 02:14:00,23.0,14.7,30.30,NNE,32,4.0,7.0,70,0.00,,OVC095,0.00,VWS V14.01,2014-01-03 07:14:00,
2014-01-03 02:15:00,23.0,14.7,30.30,NNW,344,2.0,3.0,70,0.00,,CLR,0.00,VWS V14.01,2014-01-03 07:15:00,
2014-01-03 02:19:00,23.1,14.5,30.30,NW,314,3.0,4.0,69,0.00,,OVC095,0.00,VWS V14.01,2014-01-03 07:19:00,
2014-01-03 02:20:00,23.0,14.7,30.30,NW,314,2.0,3.0,70,0.00,,CLR,0.00,VWS V14.01,2014-01-03 07:20:00,
2014-01-03 02:24:00,23.1,14.1,30.30,NNW,335,5.0,5.0,68,0.00,,OVC095,0.00,VWS V14.01,2014-01-03 07:24:00,
2014-01-03 02:25:00,23.2,14.2,30.30,NW,312,5.0,5.0,68,0.00,,CLR,0.00,VWS V14.01,2014-01-03 07:25:00,
2014-01-03 02:29:00,23.2,13.9,30.31,NW,320,3.0,10.0,67,0.00,,OVC095,0.00,VWS V14.01,2014-01-03 07:29:00,
2014-01-03 02:30:00,23.2,13.9,30.31,NNW,342,3.0,4.0,67,0.00,,CLR,0.00,VWS V14.01,2014-01-03 07:30:00,
2014-01-03 02:34:00,23.1,13.8,30.31,NNW,332,4.0,8.0,67,0.00,,OVC095,0.00,VWS V14.01,2014-01-03 07:34:00,
2014-01-03 02:35:00,23.0,14.0,30.31,North,354,3.0,4.0,68,0.00,,CLR,0.00,VWS V14.01,2014-01-03 07:35:00,
2014-01-03 02:39:00,23.0,13.7,30.32,NNW,330,3.0,3.0,67,0.00,,OVC095,0.00,VWS V14.01,2014-01-03 07:39:00,
2014-01-03 02:40:00,23.0,14.4,30.32,NW,314,4.0,5.0,69,0.00,,CLR,0.00,VWS V14.01,2014-01-03 07:40:00,
2014-01-03 02:44:00,23.1,14.5,30.32,NW,311,1.0,4.0,69,0.00,,OVC095,0.00,VWS V14.01,2014-01-03 07:44:00,
2014-01-03 02:45:00,23.1,14.5,30.32,NNW,331,2.0,6.0,69,0.00,,CLR,0.00,VWS V14.01,2014-01-03 07:45:00,
2014-01-03 02:49:00,23.0,14.0,30.32,NNW,334,4.0,9.0,68,0.00,,OVC095,0.00,VWS V14.01,2014-01-03 07:49:00,
2014-01-03 02:50:00,23.0,13.7,30.32,NNW,337,4.0,8.0,67,0.00,,CLR,0.00,VWS V14.01,2014-01-03 07:50:00,
2014-01-03 02:54:00,22.8,13.5,30.32,NW,322,6.0,9.0,67,0.00,,OVC095,0.00,VWS V14.01,2014-01-03 07:54:00,
2014-01-03 02:55:00,22.8,13.5,30.32,NNW,347,5.0,9.0,67,0.00,,CLR,0.00,VWS V14.01,2014-01-03 07:55:00,
2014-01-03 02:59:00,22.7,13.1,30.32,NNW,332,6.0,8.0,66,0.00,,OVC095,0.00,VWS V14.01,2014-01-03 07:59:00,
2014-01-03 03:00:00,22.7,13.4,30.32,NW,321,3.0,8.0,67,0.00,,CLR,0.00,VWS V14.01,2014-01-03 08:00:00,
2014-01-03 03:04:00,22.7,13.4,30.32,WNW,295,11.0,11.0,67,0.00,,OVC095,0.00,VWS V14.01,2014-01-03 08:04:00,
2014-01-03 03:05:00,22.7,13.1,30.32,NNW,347,3.0,3.0,66,0.00,,CLR,0.00,VWS V14.01,2014-01-03 08:05:00,
2014-01-03 03:09:00,22.7,13.4,30.33,West,276,8.0,8.0,67,0.00,,OVC095,0.00,VWS V14.01,2014-01-03 08:09:00,
2014-01-03 03:10:00,22.7,13.4,30.33,WNW,299,1.0,3.0,67,0.00,,CLR,0.00,VWS V14.01,2014-01-03 08:10:00,
2014-01-03 03:14:00,22.6,13.0,30.33,NNW,328,3.0,13.0,66,0.00,,OVC095,0.00,VWS V14.01,2014-01-03 08:14:00,
2014-01-03 03:15:00,22.6,13.0,30.33,NNW,337,3.0,4.0,66,0.00,,CLR,0.00,VWS V14.01,2014-01-03 08:15:00,
2014-01-03 03:19:00,22.6,13.3,30.33,NW,326,2.0,8.0,67,0.00,,OVC095,0.00,VWS V14.01,2014-01-03 08:19:00,
2014-01-03 03:20:00,22.6,13.6,30.33,NNW,335,1.0,5.0,68,0.00,,CLR,0.00,VWS V14.01,2014-01-03 08:20:00,
2014-01-03 03:24:00,22.5,13.6,30.33,WNW,295,8.0,8.0,68,0.00,,OVC095,0.00,VWS V14.01,2014-01-03 08:24:00,
2014-01-03 03:25:00,22.5,13.2,30.34,NW,319,5.0,9.0,67,0.00,,CLR,0.00,VWS V14.01,2014-01-03 08:25:00,
2014-01-03 03:29:00,22.5,13.2,30.33,NNW,344,4.0,5.0,67,0.00,,OVC095,0.00,VWS V14.01,2014-01-03 08:29:00,
2014-01-03 03:30:00,22.5,13.2,30.33,WNW,303,5.0,10.0,67,0.00,,CLR,0.00,VWS V14.01,2014-01-03 08:30:00,
2014-01-03 03:34:00,22.4,13.4,30.33,NW,314,9.0,9.0,68,0.00,,OVC095,0.00,VWS V14.01,2014-01-03 08:34:00,
2014-01-03 03:35:00,22.4,13.4,30.33,NW,310,5.0,9.0,68,0.00,,CLR,0.00,VWS V14.01,2014-01-03 08:35:00,
2014-01-03 03:39:00,22.3,13.4,30.33,NW,322,5.0,5.0,68,0.00,,OVC095,0.00,VWS V14.01,2014-01-03 08:39:00,
2014-01-03 03:40:00,22.3,13.4,30.33,NNW,337,9.0,11.0,68,0.00,,CLR,0.00,VWS V14.01,2014-01-03 08:40:00,
2014-01-03 03:44:00,22.2,12.9,30.33,NNW,335,4.0,6.0,67,0.00,,OVC095,0.00,VWS V14.01,2014-01-03 08:44:00,
2014-01-03 03:45:00,22.2,13.6,30.33,West,261,4.0,8.0,69,0.00,,CLR,0.00,VWS V14.01,2014-01-03 08:45:00,
2014-01-03 03:50:00,22.1,12.8,30.33,North,359,9.0,9.0,67,0.00,,OVC095,0.00,VWS V14.01,2014-01-03 08:50:00,
2014-01-03 03:55:00,22.0,12.7,30.34,North,4,5.0,10.0,67,0.00,,OVC095,0.00,VWS V14.01,2014-01-03 08:55:00,
2014-01-03 04:00:00,22.0,12.4,30.34,North,359,1.0,10.0,66,0.00,,OVC095,0.00,VWS V14.01,2014-01-03 09:00:00,
2014-01-03 04:05:00,21.8,12.5,30.35,NNW,334,8.0,13.0,67,0.00,,OVC095,0.00,VWS V14.01,2014-01-03 09:05:00,
2014-01-03 04:10:00,21.9,12.6,30.34,WNW,287,4.0,10.0,67,0.00,,OVC095,0.00,VWS V14.01,2014-01-03 09:10:00,
2014-01-03 04:15:00,22.0,13.1,30.34,NW,309,8.0,8.0,68,0.00,,OVC095,0.00,VWS V14.01,2014-01-03 09:15:00,
2014-01-03 04:20:00,22.1,12.8,30.33,NW,308,3.0,4.0,67,0.00,,OVC095,0.00,VWS V14.01,2014-01-03 09:20:00,
2014-01-03 04:25:00,22.0,12.4,30.33,NW,308,4.0,6.0,66,0.00,,OVC095,0.00,VWS V14.01,2014-01-03 09:25:00,
2014-01-03 04:30:00,22.0,12.7,30.33,NNW,334,4.0,6.0,67,0.00,,OVC095,0.00,VWS V14.01,2014-01-03 09:30:00,
2014-01-03 04:35:00,21.9,12.6,30.33,North,354,4.0,8.0,67,0.00,,OVC095,0.00,VWS V14.01,2014-01-03 09:35:00,
2014-01-03 04:40:00,21.8,12.9,30.34,NW,325,9.0,10.0,68,0.00,,OVC095,0.00,VWS V14.01,2014-01-03 09:40:00,
2014-01-03 04:45:00,21.9,13.0,30.34,NW,324,5.0,7.0,68,0.00,,OVC095,0.00,VWS V14.01,2014-01-03 09:45:00,
2014-01-03 04:50:00,21.8,12.9,30.33,NNW,328,2.0,6.0,68,0.00,,OVC095,0.00,VWS V14.01,2014-01-03 09:50:00,
2014-01-03 04:55:00,21.8,12.9,30.33,NW,323,3.0,5.0,68,0.00,,OVC095,0.00,VWS V14.01,2014-01-03 09:55:00,
2014-01-03 05:00:00,21.7,12.8,30.34,NW,319,3.0,4.0,68,0.00,,OVC095,0.00,VWS V14.01,2014-01-03 10:00:00,
2014-01-03 05:05:00,21.6,12.7,30.35,NW,318,1.0,2.0,68,0.00,,OVC095,0.00,VWS V14.01,2014-01-03 10:05:00,
2014-01-03 05:10:00,21.6,12.7,30.35,NNE,12,8.0,8.0,68,0.00,,OVC095,0.00,VWS V14.01,2014-01-03 10:10:00,
2014-01-03 05:15:00,21.6,12.7,30.35,NW,325,4.0,5.0,68,0.00,,OVC095,0.00,VWS V14.01,2014-01-03 10:15:00,
2014-01-03 05:20:00,21.7,13.1,30.35,NW,314,3.0,5.0,69,0.00,,OVC095,0.00,VWS V14.01,2014-01-03 10:20:00,
2014-01-03 05:25:00,21.8,13.2,30.35,WNW,289,4.0,4.0,69,0.00,,OVC095,0.00,VWS V14.01,2014-01-03 10:25:00,
2014-01-03 05:30:00,21.8,13.2,30.35,West,278,4.0,4.0,69,0.00,,OVC095,0.00,VWS V14.01,2014-01-03 10:30:00,
2014-01-03 05:35:00,21.9,13.6,30.36,NW,324,5.0,9.0,70,0.00,,OVC095,0.00,VWS V14.01,2014-01-03 10:35:00,
2014-01-03 05:40:00,22.0,13.4,30.36,NNW,348,4.0,9.0,69,0.00,,OVC095,0.00,VWS V14.01,2014-01-03 10:40:00,
2014-01-03 05:45:00,21.9,13.3,30.35,NNW,335,2.0,7.0,69,0.00,,OVC095,0.00,VWS V14.01,2014-01-03 10:45:00,
2014-01-03 05:50:00,21.8,13.2,30.35,NNW,331,5.0,5.0,69,0.00,,OVC095,0.00,VWS V14.01,2014-01-03 10:50:00,
2014-01-03 05:55:00,21.8,13.2,30.36,NW,313,1.0,3.0,69,0.00,,OVC095,0.00,VWS V14.01,2014-01-03 10:55:00,
2014-01-03 06:00:00,21.8,13.2,30.36,NNW,337,6.0,6.0,69,0.00,,OVC095,0.00,VWS V14.01,2014-01-03 11:00:00,
2014-01-03 06:05:00,21.8,13.5,30.36,NW,313,4.0,5.0,70,0.00,,OVC095,0.00,VWS V14.01,2014-01-03 11:05:00,
2014-01-03 06:10:00,21.7,13.8,30.36,NW,326,2.0,3.0,71,0.00,,OVC095,0.00,VWS V14.01,2014-01-03 11:10:00,
2014-01-03 06:15:00,21.6,13.3,30.37,NNW,346,2.0,9.0,70,0.00,,OVC095,0.00,VWS V14.01,2014-01-03 11:15:00,
2014-01-03 06:20:00,21.5,12.9,30.37,NW,322,2.0,3.0,69,0.00,,OVC095,0.00,VWS V14.01,2014-01-03 11:20:00,
2014-01-03 06:25:00,21.3,13.1,30.37,NNW,328,8.0,8.0,70,0.00,,OVC095,0.00,VWS V14.01,2014-01-03 11:25:00,
2014-01-03 06:30:00,21.2,12.6,30.36,North,349,5.0,10.0,69,0.00,,OVC095,0.00,VWS V14.01,2014-01-03 11:30:00,
2014-01-03 06:35:00,21.1,12.2,30.37,NNW,332,4.0,11.0,68,0.00,,OVC095,0.00,VWS V14.01,2014-01-03 11:35:00,
2014-01-03 06:40:00,21.0,11.8,30.38,WNW,303,2.0,3.0,67,0.00,,OVC095,0.00,VWS V14.01,2014-01-03 11:40:00,
2014-01-03 06:45:00,20.9,12.0,30.37,NW,305,4.0,4.0,68,0.00,,OVC095,0.00,VWS V14.01,2014-01-03 11:45:00,
2014-01-03 06:50:00,20.8,12.2,30.37,NNW,331,3.0,5.0,69,0.00,,OVC095,0.00,VWS V14.01,2014-01-03 11:50:00,
2014-01-03 06:55:00,20.6,12.1,30.37,NW,322,2.0,3.0,69,0.00,,OVC095,0.00,VWS V14.01,2014-01-03 11:55:00,
2014-01-03 07:00:00,20.6,12.1,30.38,NNW,348,3.0,3.0,69,0.00,,CLR,0.00,VWS V14.01,2014-01-03 12:00:00,
2014-01-03 07:01:00,20.6,12.1,30.37,NNW,346,3.0,3.0,69,0.00,,OVC095,0.00,VWS V14.01,2014-01-03 12:01:00,
2014-01-03 07:05:00,20.5,12.3,30.37,NNW,347,2.0,8.0,70,0.00,,CLR,0.00,VWS V14.01,2014-01-03 12:05:00,
2014-01-03 07:06:00,20.5,12.3,30.37,North,354,5.0,8.0,70,0.00,,OVC095,0.00,VWS V14.01,2014-01-03 12:06:00,
2014-01-03 07:10:00,20.4,11.9,30.37,North,359,5.0,10.0,69,0.00,,CLR,0.00,VWS V14.01,2014-01-03 12:10:00,
2014-01-03 07:11:00,20.4,11.9,30.37,NNW,348,4.0,10.0,69,0.00,,OVC095,0.00,VWS V14.01,2014-01-03 12:11:00,
2014-01-03 07:15:00,20.2,11.7,30.38,North,359,2.0,8.0,69,0.00,,CLR,0.00,VWS V14.01,2014-01-03 12:15:00,
2014-01-03 07:16:00,20.2,11.7,30.38,North,359,2.0,5.0,69,0.00,,OVC095,0.00,VWS V14.01,2014-01-03 12:16:00,
2014-01-03 07:20:00,20.2,11.7,30.38,North,349,9.0,9.0,69,0.00,,CLR,0.00,VWS V14.01,2014-01-03 12:20:00,
2014-01-03 07:21:00,20.2,11.7,30.38,NW,308,8.0,11.0,69,0.00,,OVC095,0.00,VWS V14.01,2014-01-03 12:21:00,
2014-01-03 07:25:00,20.2,11.7,30.38,NNW,341,6.0,8.0,69,0.00,,CLR,0.00,VWS V14.01,2014-01-03 12:25:00,
2014-01-03 07:26:00,20.3,11.8,30.38,WNW,300,5.0,6.0,69,0.00,,OVC095,0.00,VWS V14.01,2014-01-03 12:26:00,
2014-01-03 07:30:00,20.2,11.7,30.39,NNW,330,2.0,4.0,69,0.00,,CLR,0.00,VWS V14.01,2014-01-03 12:30:00,
2014-01-03 07:31:00,20.2,11.7,30.39,NNW,329,2.0,3.0,69,0.00,,OVC095,0.00,VWS V14.01,2014-01-03 12:31:00,
2014-01-03 07:35:00,20.2,12.0,30.39,NNW,345,4.0,6.0,70,0.00,,CLR,0.00,VWS V14.01,2014-01-03 12:35:00,
2014-01-03 07:36:00,20.2,12.0,30.39,North,359,5.0,8.0,70,0.00,,OVC095,0.00,VWS V14.01,2014-01-03 12:36:00,
2014-01-03 07:40:00,20.2,12.3,30.40,North,4,9.0,12.0,71,0.00,,CLR,0.00,VWS V14.01,2014-01-03 12:40:00,
2014-01-03 07:41:00,20.2,12.3,30.40,North,354,6.0,12.0,71,0.00,,OVC095,0.00,VWS V14.01,2014-01-03 12:41:00,
2014-01-03 07:45:00,20.2,11.7,30.40,NNW,339,3.0,4.0,69,0.00,,CLR,0.00,VWS V14.01,2014-01-03 12:45:00,
2014-01-03 07:46:00,20.1,11.6,30.41,NNW,339,8.0,14.0,69,0.00,,OVC095,0.00,VWS V14.01,2014-01-03 12:46:00,
2014-01-03 07:50:00,20.1,11.6,30.40,NNW,335,2.0,3.0,69,0.00,,CLR,0.00,VWS V14.01,2014-01-03 12:50:00,
2014-01-03 07:51:00,20.0,11.5,30.41,NNW,335,2.0,2.0,69,0.00,,OVC095,0.00,VWS V14.01,2014-01-03 12:51:00,
2014-01-03 07:55:00,20.0,11.8,30.41,WNW,303,2.0,5.0,70,0.00,,CLR,0.00,VWS V14.01,2014-01-03 12:55:00,
2014-01-03 07:56:00,20.0,11.8,30.41,WNW,303,2.0,4.0,70,0.00,,OVC095,0.00,VWS V14.01,2014-01-03 12:56:00,
2014-01-03 08:02:00,20.0,11.8,30.41,NW,323,2.0,3.0,70,0.00,,OVC095,0.00,VWS V14.01,2014-01-03 13:02:00,
2014-01-03 08:05:00,19.9,11.7,30.42,NNW,343,4.0,5.0,70,0.00,,CLR,0.00,VWS V14.01,2014-01-03 13:05:00,
2014-01-03 08:07:00,19.9,12.0,30.42,NNW,343,3.0,3.0,71,0.00,,OVC095,0.00,VWS V14.01,2014-01-03 13:07:00,
2014-01-03 08:10:00,19.9,11.7,30.42,NNW,345,2.0,4.0,70,0.00,,CLR,0.00,VWS V14.01,2014-01-03 13:10:00,
2014-01-03 08:12:00,19.9,11.7,30.42,NW,316,3.0,10.0,70,0.00,,OVC095,0.00,VWS V14.01,2014-01-03 13:12:00,
2014-01-03 08:15:00,19.9,11.7,30.42,NNW,337,2.0,3.0,70,0.00,,CLR,0.00,VWS V14.01,2014-01-03 13:15:00,
2014-01-03 08:17:00,19.9,12.0,30.42,West,277,0.0,2.0,71,0.00,,OVC095,0.00,VWS V14.01,2014-01-03 13:17:00,
2014-01-03 08:20:00,19.9,12.0,30.42,NW,304,2.0,3.0,71,0.00,,CLR,0.00,VWS V14.01,2014-01-03 13:20:00,
2014-01-03 08:22:00,19.9,12.0,30.42,NNE,16,2.0,4.0,71,0.00,,OVC095,0.00,VWS V14.01,2014-01-03 13:22:00,
2014-01-03 08:25:00,19.9,12.0,30.42,North,4,5.0,5.0,71,0.00,,CLR,0.00,VWS V14.01,2014-01-03 13:25:00,
2014-01-03 08:27:00,19.9,11.7,30.42,North,4,2.0,3.0,70,0.00,,OVC095,0.00,VWS V14.01,2014-01-03 13:27:00,
2014-01-03 08:30:00,19.9,12.0,30.42,NW,326,3.0,3.0,71,0.00,,CLR,0.00,VWS V14.01,2014-01-03 13:30:00,
2014-01-03 08:32:00,19.9,11.7,30.42,NW,320,3.0,4.0,70,0.00,,OVC095,0.00,VWS V14.01,2014-01-03 13:32:00,
2014-01-03 08:35:00,19.9,11.7,30.43,NNW,328,1.0,2.0,70,0.00,,CLR,0.00,VWS V14.01,2014-01-03 13:35:00,
2014-01-03 08:37:00,20.0,11.8,30.43,NNW,327,1.0,3.0,70,0.00,,OVC095,0.00,VWS V14.01,2014-01-03 13:37:00,
2014-01-03 08:40:00,20.0,11.8,30.43,WNW,301,2.0,4.0,70,0.00,,CLR,0.00,VWS V14.01,2014-01-03 13:40:00,
2014-01-03 08:42:00,20.0,11.5,30.43,WNW,301,1.0,2.0,69,0.00,,OVC095,0.00,VWS V14.01,2014-01-03 13:42:00,
2014-01-03 08:45:00,20.0,11.8,30.43,NW,320,2.0,4.0,70,0.00,,CLR,0.00,VWS V14.01,2014-01-03 13:45:00,
2014-01-03 08:47:00,20.1,12.2,30.43,NW,323,3.0,5.0,71,0.00,,OVC095,0.00,VWS V14.01,2014-01-03 13:47:00,
2014-01-03 08:50:00,20.2,11.7,30.44,NNW,331,1.0,3.0,69,0.00,,CLR,0.00,VWS V14.01,2014-01-03 13:50:00,
2014-01-03 08:52:00,20.2,11.7,30.44,NNW,328,8.0,8.0,69,0.00,,OVC095,0.00,VWS V14.01,2014-01-03 13:52:00,
2014-01-03 08:55:00,20.2,11.4,30.44,North,4,5.0,10.0,68,0.00,,CLR,0.00,VWS V14.01,2014-01-03 13:55:00,
2014-01-03 08:57:00,20.3,11.1,30.44,NNW,346,3.0,5.0,67,0.00,,OVC095,0.00,VWS V14.01,2014-01-03 13:57:00,
2014-01-03 09:00:00,20.3,11.4,30.44,North,354,3.0,6.0,68,0.00,,CLR,0.00,VWS V14.01,2014-01-03 14:00:00,
2014-01-03 09:02:00,20.3,11.1,30.43,NW,322,13.0,13.0,67,0.00,,OVC095,0.00,VWS V14.01,2014-01-03 14:02:00,
2014-01-03 09:05:00,20.3,11.1,30.44,NNW,329,3.0,9.0,67,0.00,,CLR,0.00,VWS V14.01,2014-01-03 14:05:00,
2014-01-03 09:07:00,20.3,11.4,30.44,NNW,337,3.0,4.0,68,0.00,,OVC095,0.00,VWS V14.01,2014-01-03 14:07:00,
2014-01-03 09:10:00,20.4,11.2,30.44,North,354,4.0,7.0,67,0.00,,CLR,0.00,VWS V14.01,2014-01-03 14:10:00,
2014-01-03 09:12:00,20.4,11.2,30.44,NNW,338,3.0,10.0,67,0.00,,OVC095,0.00,VWS V14.01,2014-01-03 14:12:00,
2014-01-03 09:15:00,20.4,11.2,30.44,North,354,3.0,5.0,67,0.00,,CLR,0.00,VWS V14.01,2014-01-03 14:15:00,
2014-01-03 09:17:00,20.5,11.3,30.44,NNE,12,1.0,4.0,67,0.00,,OVC095,0.00,VWS V14.01,2014-01-03 14:17:00,
2014-01-03 09:20:00,20.5,11.3,30.45,NNW,335,3.0,6.0,67,0.00,,CLR,0.00,VWS V14.01,2014-01-03 14:20:00,
2014-01-03 09:22:00,20.5,11.3,30.45,NNW,333,6.0,8.0,67,0.00,,OVC095,0.00,VWS V14.01,2014-01-03 14:22:00,
2014-01-03 09:25:00,20.6,11.4,30.45,NW,326,3.0,5.0,67,0.00,,CLR,0.00,VWS V14.01,2014-01-03 14:25:00,
2014-01-03 09:27:00,20.6,11.7,30.45,NNW,330,6.0,10.0,68,0.00,,OVC095,0.00,VWS V14.01,2014-01-03 14:27:00,
2014-01-03 09:30:00,20.7,11.1,30.45,NNW,341,3.0,5.0,66,0.00,,CLR,0.00,VWS V14.01,2014-01-03 14:30:00,
2014-01-03 09:32:00,20.7,11.1,30.45,NW,321,3.0,6.0,66,0.00,,OVC095,0.00,VWS V14.01,2014-01-03 14:32:00,
2014-01-03 09:35:00,20.8,10.9,30.45,NNE,23,4.0,4.0,65,0.00,,CLR,0.00,VWS V14.01,2014-01-03 14:35:00,
2014-01-03 09:37:00,20.8,10.9,30.46,ENE,68,3.0,4.0,65,0.00,,OVC095,0.00,VWS V14.01,2014-01-03 14:37:00,
2014-01-03 09:40:00,20.9,11.0,30.46,NNW,330,3.0,6.0,65,0.00,,CLR,0.00,VWS V14.01,2014-01-03 14:40:00,
2014-01-03 09:42:00,20.9,11.0,30.46,NNW,340,3.0,4.0,65,0.00,,OVC095,0.00,VWS V14.01,2014-01-03 14:42:00,
2014-01-03 09:45:00,20.9,11.0,30.46,NE,36,2.0,4.0,65,0.00,,CLR,0.00,VWS V14.01,2014-01-03 14:45:00,
2014-01-03 09:47:00,21.0,11.1,30.46,North,8,3.0,3.0,65,0.00,,OVC095,0.00,VWS V14.01,2014-01-03 14:47:00,
2014-01-03 09:50:00,21.0,11.1,30.47,NNE,18,4.0,4.0,65,0.00,,CLR,0.00,VWS V14.01,2014-01-03 14:50:00,
2014-01-03 09:52:00,21.0,11.1,30.47,ENE,62,1.0,4.0,65,0.00,,OVC095,0.00,VWS V14.01,2014-01-03 14:52:00,
2014-01-03 09:55:00,21.1,11.2,30.47,North,4,2.0,4.0,65,0.00,,CLR,0.00,VWS V14.01,2014-01-03 14:55:00,
2014-01-03 09:57:00,21.1,10.8,30.47,NNW,340,5.0,7.0,64,0.00,,OVC095,0.00,VWS V14.01,2014-01-03 14:57:00,
2014-01-03 10:00:00,21.3,11.0,30.47,NNW,347,4.0,4.0,64,0.00,,CLR,0.00,VWS V14.01,2014-01-03 15:00:00,
2014-01-03 10:02:00,21.3,11.0,30.48,North,8,1.0,3.0,64,0.00,,OVC095,0.00,VWS V14.01,2014-01-03 15:02:00,
2014-01-03 10:05:00,21.3,10.7,30.48,North,359,0.0,2.0,63,0.00,,CLR,0.00,VWS V14.01,2014-01-03 15:05:00,
2014-01-03 10:07:00,21.3,10.7,30.48,NNW,339,4.0,4.0,63,0.00,,OVC095,0.00,VWS V14.01,2014-01-03 15:07:00,
2014-01-03 10:10:00,21.3,11.0,30.48,NNW,337,4.0,9.0,64,0.00,,CLR,0.00,VWS V14.01,2014-01-03 15:10:00,
2014-01-03 10:12:00,21.4,11.1,30.48,WNW,303,5.0,8.0,64,0.00,,OVC095,0.00,VWS V14.01,2014-01-03 15:12:00,
2014-01-03 10:15:00,21.5,11.2,30.49,NW,310,3.0,4.0,64,0.00,,CLR,0.00,VWS V14.01,2014-01-03 15:15:00,
2014-01-03 10:17:00,21.7,11.8,30.49,NW,316,4.0,5.0,65,0.00,,OVC095,0.00,VWS V14.01,2014-01-03 15:17:00,
2014-01-03 10:20:00,21.7,10.7,30.49,NNE,19,3.0,7.0,62,0.00,,CLR,0.00,VWS V14.01,2014-01-03 15:20:00,
2014-01-03 10:22:00,21.7,10.7,30.49,North,10,3.0,3.0,62,0.00,,OVC095,0.00,VWS V14.01,2014-01-03 15:22:00,
2014-01-03 10:25:00,21.7,10.7,30.49,North,354,2.0,5.0,62,0.00,,CLR,0.00,VWS V14.01,2014-01-03 15:25:00,
2014-01-03 10:27:00,21.8,10.8,30.49,North,354,2.0,2.0,62,0.00,,OVC095,0.00,VWS V14.01,2014-01-03 15:27:00,
2014-01-03 10:30:00,22.0,11.0,30.49,NNW,339,2.0,4.0,62,0.00,,CLR,0.00,VWS V14.01,2014-01-03 15:30:00,
2014-01-03 10:32:00,22.1,11.4,30.49,NNW,341,3.0,4.0,63,0.00,,OVC095,0.00,VWS V14.01,2014-01-03 15:32:00,
2014-01-03 10:35:00,22.3,11.3,30.49,NW,325,3.0,5.0,62,0.00,,CLR,0.00,VWS V14.01,2014-01-03 15:35:00,
2014-01-03 10:37:00,22.4,11.7,30.49,ENE,73,4.0,5.0,63,0.00,,OVC095,0.00,VWS V14.01,2014-01-03 15:37:00,
2014-01-03 10:40:00,22.5,11.5,30.49,NNW,342,0.0,1.0,62,0.00,,CLR,0.00,VWS V14.01,2014-01-03 15:40:00,
2014-01-03 10:42:00,22.6,11.6,30.49,NNE,18,2.0,3.0,62,0.00,,OVC095,0.00,VWS V14.01,2014-01-03 15:42:00,
2014-01-03 10:45:00,22.7,11.3,30.50,North,354,1.0,3.0,61,0.00,,CLR,0.00,VWS V14.01,2014-01-03 15:45:00,
2014-01-03 10:48:00,22.9,11.5,30.50,North,354,1.0,2.0,61,0.00,,OVC095,0.00,VWS V14.01,2014-01-03 15:48:00,
2014-01-03 10:50:00,23.0,11.6,30.50,NNW,339,4.0,6.0,61,0.00,,CLR,0.00,VWS V14.01,2014-01-03 15:50:00,
2014-01-03 10:53:00,23.1,11.3,30.50,NNW,332,2.0,8.0,60,0.00,,OVC095,0.00,VWS V14.01,2014-01-03 15:53:00,
2014-01-03 10:55:00,23.2,11.4,30.50,NNE,33,2.0,3.0,60,0.00,,CLR,0.00,VWS V14.01,2014-01-03 15:55:00,
2014-01-03 10:58:00,23.3,11.1,30.50,NNE,27,2.0,2.0,59,0.00,,OVC095,0.00,VWS V14.01,2014-01-03 15:58:00,
2014-01-03 11:00:00,23.5,11.7,30.50,NNE,30,2.0,2.0,60,0.00,,CLR,0.00,VWS V14.01,2014-01-03 16:00:00,
2014-01-03 11:03:00,23.6,11.8,30.50,NE,43,2.0,5.0,60,0.00,,OVC095,0.00,VWS V14.01,2014-01-03 16:03:00,
2014-01-03 11:05:00,23.8,11.2,30.50,NNE,21,2.0,2.0,58,0.00,,CLR,0.00,VWS V14.01,2014-01-03 16:05:00,
2014-01-03 11:08:00,23.9,11.7,30.50,NNW,340,2.0,4.0,59,0.00,,OVC095,0.00,VWS V14.01,2014-01-03 16:08:00,
2014-01-03 11:10:00,23.9,11.7,30.50,NNE,25,3.0,3.0,59,0.00,,CLR,0.00,VWS V14.01,2014-01-03 16:10:00,
2014-01-03 11:13:00,24.0,12.1,30.50,NNE,23,2.0,2.0,60,0.00,,OVC095,0.00,VWS V14.01,2014-01-03 16:13:00,
2014-01-03 11:15:00,24.1,13.0,30.50,ENE,74,3.0,4.0,62,0.00,,CLR,0.00,VWS V14.01,2014-01-03 16:15:00,
2014-01-03 11:18:00,24.3,12.4,30.50,ENE,63,1.0,2.0,60,0.00,,OVC095,0.00,VWS V14.01,2014-01-03 16:18:00,
2014-01-03 11:20:00,24.4,12.5,30.50,NW,320,3.0,5.0,60,0.00,,CLR,0.00,VWS V14.01,2014-01-03 16:20:00,
2014-01-03 11:23:00,24.5,12.6,30.50,NW,323,5.0,6.0,60,0.00,,OVC095,0.00,VWS V14.01,2014-01-03 16:23:00,
2014-01-03 11:25:00,24.6,11.9,30.50,NNW,330,4.0,4.0,58,0.00,,CLR,0.00,VWS V14.01,2014-01-03 16:25:00,
2014-01-03 11:28:00,24.6,11.9,30.50,NNW,338,2.0,2.0,58,0.00,,OVC095,0.00,VWS V14.01,2014-01-03 16:28:00,
2014-01-03 11:30:00,24.7,12.0,30.50,NNW,338,0.0,0.0,58,0.00,,CLR,0.00,VWS V14.01,2014-01-03 16:30:00,
2014-01-03 11:33:00,24.9,12.6,30.50,NNE,29,2.0,3.0,59,0.00,,OVC095,0.00,VWS V14.01,2014-01-03 16:33:00,
2014-01-03 11:35:00,25.0,11.9,30.50,North,4,2.0,3.0,57,0.00,,CLR,0.00,VWS V14.01,2014-01-03 16:35:00,
2014-01-03 11:38:00,25.0,12.3,30.50,North,9,3.0,3.0,58,0.00,,OVC095,0.00,VWS V14.01,2014-01-03 16:38:00,
2014-01-03 11:40:00,25.1,12.0,30.49,WNW,299,2.0,4.0,57,0.00,,CLR,0.00,VWS V14.01,2014-01-03 16:40:00,
2014-01-03 11:43:00,25.2,12.5,30.50,WNW,301,3.0,4.0,58,0.00,,OVC095,0.00,VWS V14.01,2014-01-03 16:43:00,
2014-01-03 11:45:00,25.3,11.8,30.50,NW,318,2.0,3.0,56,0.00,,CLR,0.00,VWS V14.01,2014-01-03 16:45:00,
2014-01-03 11:48:00,25.3,12.2,30.50,NW,326,2.0,2.0,57,0.00,,OVC095,0.00,VWS V14.01,2014-01-03 16:48:00,
2014-01-03 11:50:00,25.4,11.9,30.49,North,359,4.0,8.0,56,0.00,,CLR,0.00,VWS V14.01,2014-01-03 16:50:00,
2014-01-03 11:53:00,25.4,11.9,30.49,WNW,295,5.0,5.0,56,0.00,,OVC095,0.00,VWS V14.01,2014-01-03 16:53:00,
2014-01-03 11:55:00,25.4,11.5,30.49,NNE,26,4.0,4.0,55,0.00,,CLR,0.00,VWS V14.01,2014-01-03 16:55:00,
2014-01-03 11:58:00,25.6,12.1,30.49,NNW,337,4.0,4.0,56,0.00,,OVC095,0.00,VWS V14.01,2014-01-03 16:58:00,
2014-01-03 12:00:00,25.7,11.4,30.49,WNW,299,1.0,1.0,54,0.00,,CLR,0.00,VWS V14.01,2014-01-03 17:00:00,
2014-01-03 12:03:00,25.8,13.1,30.49,North,10,2.0,2.0,58,0.00,,OVC095,0.00,VWS V14.01,2014-01-03 17:03:00,
2014-01-03 12:05:00,26.0,12.9,30.49,NNE,14,2.0,3.0,57,0.00,,CLR,0.00,VWS V14.01,2014-01-03 17:05:00,
2014-01-03 12:08:00,26.2,13.1,30.48,North,8,2.0,4.0,57,0.00,,OVC095,0.00,VWS V14.01,2014-01-03 17:08:00,
2014-01-03 12:10:00,26.5,12.9,30.49,North,8,4.0,4.0,56,0.00,,CLR,0.00,VWS V14.01,2014-01-03 17:10:00,
2014-01-03 12:13:00,26.6,12.6,30.49,NNE,14,3.0,9.0,55,0.00,,OVC095,0.00,VWS V14.01,2014-01-03 17:13:00,
2014-01-03 12:15:00,26.7,12.3,30.48,NNE,15,3.0,7.0,54,0.00,,CLR,0.00,VWS V14.01,2014-01-03 17:15:00,
2014-01-03 12:18:00,26.7,12.3,30.48,NNE,14,2.0,2.0,54,0.00,,OVC095,0.00,VWS V14.01,2014-01-03 17:18:00,
2014-01-03 12:20:00,26.7,11.9,30.48,North,8,2.0,5.0,53,0.00,,CLR,0.00,VWS V14.01,2014-01-03 17:20:00,
2014-01-03 12:23:00,26.7,12.7,30.48,North,10,4.0,5.0,55,0.00,,OVC095,0.00,VWS V14.01,2014-01-03 17:23:00,
2014-01-03 12:25:00,26.8,12.8,30.48,NNE,15,4.0,4.0,55,0.00,,CLR,0.00,VWS V14.01,2014-01-03 17:25:00,
2014-01-03 12:28:00,27.1,12.7,30.48,NNE,15,2.0,3.0,54,0.00,,OVC095,0.00,VWS V14.01,2014-01-03 17:28:00,
2014-01-03 12:30:00,27.2,12.8,30.48,NNE,15,4.0,5.0,54,0.00,,CLR,0.00,VWS V14.01,2014-01-03 17:30:00,
2014-01-03 12:33:00,27.3,12.0,30.48,NNE,15,3.0,4.0,52,0.00,,OVC095,0.00,VWS V14.01,2014-01-03 17:33:00,
2014-01-03 12:35:00,27.4,12.5,30.48,NNE,16,3.0,5.0,53,0.00,,CLR,0.00,VWS V14.01,2014-01-03 17:35:00,
2014-01-03 12:38:00,27.5,11.8,30.48,NNE,15,4.0,5.0,51,0.00,,OVC095,0.00,VWS V14.01,2014-01-03 17:38:00,
2014-01-03 12:40:00,27.5,12.6,30.47,North,8,2.0,5.0,53,0.00,,CLR,0.00,VWS V14.01,2014-01-03 17:40:00,
2014-01-03 12:43:00,27.5,12.6,30.47,North,8,3.0,3.0,53,0.00,,OVC095,0.00,VWS V14.01,2014-01-03 17:43:00,
2014-01-03 12:45:00,27.6,12.7,30.47,NNE,16,4.0,7.0,53,0.00,,CLR,0.00,VWS V14.01,2014-01-03 17:45:00,
2014-01-03 12:49:00,27.7,12.4,30.47,NNE,21,1.0,2.0,52,0.00,,OVC095,0.00,VWS V14.01,2014-01-03 17:49:00,
2014-01-03 12:50:00,27.9,13.0,30.47,NNE,17,3.0,4.0,53,0.00,,CLR,0.00,VWS V14.01,2014-01-03 17:50:00,
2014-01-03 12:54:00,28.1,11.9,30.47,NNE,18,3.0,4.0,50,0.00,,OVC095,0.00,VWS V14.01,2014-01-03 17:54:00,
2014-01-03 12:55:00,28.1,11.9,30.47,NNE,18,2.0,2.0,50,0.00,,CLR,0.00,VWS V14.01,2014-01-03 17:55:00,
2014-01-03 12:59:00,28.2,12.4,30.47,NNE,17,2.0,4.0,51,0.00,,OVC095,0.00,VWS V14.01,2014-01-03 17:59:00,
2014-01-03 13:00:00,28.2,12.4,30.47,NNE,16,2.0,3.0,51,0.00,,CLR,0.00,VWS V14.01,2014-01-03 18:00:00,
2014-01-03 13:04:00,28.3,12.5,30.47,North,8,1.0,4.0,51,0.00,,OVC095,0.00,VWS V14.01,2014-01-03 18:04:00,
2014-01-03 13:05:00,28.2,11.5,30.47,NNE,18,7.0,7.0,49,0.00,,CLR,0.00,VWS V14.01,2014-01-03 18:05:00,
2014-01-03 13:09:00,28.3,12.1,30.46,NNE,16,3.0,7.0,50,0.00,,OVC095,0.00,VWS V14.01,2014-01-03 18:09:00,
2014-01-03 13:10:00,28.4,12.1,30.46,NNE,20,1.0,4.0,50,0.00,,CLR,0.00,VWS V14.01,2014-01-03 18:10:00,
2014-01-03 13:14:00,28.6,12.8,30.46,NNE,19,5.0,8.0,51,0.00,,OVC095,0.00,VWS V14.01,2014-01-03 18:14:00,
2014-01-03 13:15:00,28.7,12.4,30.46,NNE,16,7.0,7.0,50,0.00,,CLR,0.00,VWS V14.01,2014-01-03 18:15:00,
2014-01-03 13:19:00,28.6,11.9,30.46,NNE,15,4.0,4.0,49,0.00,,OVC095,0.00,VWS V14.01,2014-01-03 18:19:00,
2014-01-03 13:20:00,28.7,12.0,30.46,NNE,15,3.0,8.0,49,0.00,,CLR,0.00,VWS V14.01,2014-01-03 18:20:00,
2014-01-03 13:24:00,29.0,12.2,30.46,NNE,14,3.0,5.0,49,0.00,,OVC095,0.00,VWS V14.01,2014-01-03 18:24:00,
2014-01-03 13:25:00,29.1,11.9,30.46,NNE,14,2.0,3.0,48,0.00,,CLR,0.00,VWS V14.01,2014-01-03 18:25:00,
2014-01-03 13:29:00,29.2,12.0,30.46,NNE,14,0.0,4.0,48,0.00,,OVC095,0.00,VWS V14.01,2014-01-03 18:29:00,
2014-01-03 13:30:00,29.2,12.0,30.46,North,10,0.0,1.0,48,0.00,,CLR,0.00,VWS V14.01,2014-01-03 18:30:00,
2014-01-03 13:34:00,29.3,13.4,30.45,North,10,1.0,3.0,51,0.00,,OVC095,0.00,VWS V14.01,2014-01-03 18:34:00,
2014-01-03 13:35:00,29.4,12.6,30.45,North,8,2.0,4.0,49,0.00,,CLR,0.00,VWS V14.01,2014-01-03 18:35:00,
2014-01-03 13:39:00,29.6,12.3,30.45,NNE,13,4.0,5.0,48,0.00,,OVC095,0.00,VWS V14.01,2014-01-03 18:39:00,
2014-01-03 13:40:00,29.6,12.3,30.45,NNE,13,4.0,4.0,48,0.00,,CLR,0.00,VWS V14.01,2014-01-03 18:40:00,
2014-01-03 13:44:00,29.7,13.4,30.45,NNE,12,3.0,3.0,50,0.00,,OVC095,0.00,VWS V14.01,2014-01-03 18:44:00,
2014-01-03 13:45:00,29.8,13.0,30.45,NNE,13,1.0,2.0,49,0.00,,CLR,0.00,VWS V14.01,2014-01-03 18:45:00,
2014-01-03 13:49:00,30.1,13.3,30.45,NNE,16,3.0,7.0,49,0.00,,OVC095,0.00,VWS V14.01,2014-01-03 18:49:00,
2014-01-03 13:50:00,30.2,12.9,30.44,North,4,3.0,4.0,48,0.00,,CLR,0.00,VWS V14.01,2014-01-03 18:50:00,
2014-01-03 13:54:00,30.4,12.1,30.45,NNE,15,1.0,3.0,46,0.00,,OVC095,0.00,VWS V14.01,2014-01-03 18:54:00,
2014-01-03 13:55:00,30.4,13.1,30.44,NNE,15,5.0,8.0,48,0.00,,CLR,0.00,VWS V14.01,2014-01-03 18:55:00,
2014-01-03 13:59:00,30.5,12.7,30.45,NNE,14,2.0,3.0,47,0.00,,OVC095,0.00,VWS V14.01,2014-01-03 18:59:00,
2014-01-03 14:00:00,30.5,12.2,30.44,NNE,14,4.0,4.0,46,0.00,,CLR,0.00,VWS V14.01,2014-01-03 19:00:00,
2014-01-03 14:04:00,30.3,12.0,30.44,NNE,14,2.0,2.0,46,0.00,,OVC095,0.00,VWS V14.01,2014-01-03 19:04:00,
2014-01-03 14:05:00,30.4,13.1,30.44,NNE,15,2.0,4.0,48,0.00,,CLR,0.00,VWS V14.01,2014-01-03 19:05:00,
2014-01-03 14:09:00,30.5,13.2,30.44,NNE,14,3.0,7.0,48,0.00,,OVC095,0.00,VWS V14.01,2014-01-03 19:09:00,
2014-01-03 14:10:00,30.6,12.3,30.44,NNE,14,2.0,4.0,46,0.00,,CLR,0.00,VWS V14.01,2014-01-03 19:10:00,
2014-01-03 14:14:00,30.6,11.8,30.44,NNE,14,2.0,3.0,45,0.00,,OVC095,0.00,VWS V14.01,2014-01-03 19:14:00,
2014-01-03 14:15:00,30.6,12.3,30.43,NNE,13,0.0,3.0,46,0.00,,CLR,0.00,VWS V14.01,2014-01-03 19:15:00,
2014-01-03 14:19:00,30.8,11.5,30.43,North,9,2.0,4.0,44,0.00,,OVC095,0.00,VWS V14.01,2014-01-03 19:19:00,
2014-01-03 14:20:00,30.8,12.0,30.44,North,8,1.0,1.0,45,0.00,,CLR,0.00,VWS V14.01,2014-01-03 19:20:00,
2014-01-03 14:24:00,30.9,12.1,30.43,NNE,15,1.0,1.0,45,0.00,,OVC095,0.00,VWS V14.01,2014-01-03 19:24:00,
2014-01-03 14:25:00,30.9,11.6,30.43,North,8,3.0,4.0,44,0.00,,CLR,0.00,VWS V14.01,2014-01-03 19:25:00,
2014-01-03 14:29:00,31.0,12.7,30.43,NNE,14,3.0,4.0,46,0.00,,OVC095,0.00,VWS V14.01,2014-01-03 19:29:00,
2014-01-03 14:30:00,31.0,11.7,30.43,NNE,14,1.0,1.0,44,0.00,,CLR,0.00,VWS V14.01,2014-01-03 19:30:00,
2014-01-03 14:34:00,31.1,12.2,30.43,NNE,14,1.0,4.0,45,0.00,,OVC095,0.00,VWS V14.01,2014-01-03 19:34:00,
2014-01-03 14:35:00,31.1,12.2,30.43,NNE,14,1.0,5.0,45,0.00,,CLR,0.00,VWS V14.01,2014-01-03 19:35:00,
2014-01-03 14:39:00,31.2,11.8,30.43,NNE,14,5.0,7.0,44,0.00,,OVC095,0.00,VWS V14.01,2014-01-03 19:39:00,
2014-01-03 14:40:00,31.2,11.8,30.43,NNE,14,3.0,4.0,44,0.00,,CLR,0.00,VWS V14.01,2014-01-03 19:40:00,
2014-01-03 14:44:00,31.2,11.8,30.42,NNE,14,9.0,9.0,44,0.00,,OVC095,0.00,VWS V14.01,2014-01-03 19:44:00,
2014-01-03 14:45:00,31.3,12.4,30.43,North,4,2.0,5.0,45,0.00,,CLR,0.00,VWS V14.01,2014-01-03 19:45:00,
2014-01-03 14:49:00,31.5,12.6,30.42,NNE,14,2.0,2.0,45,0.00,,OVC095,0.00,VWS V14.01,2014-01-03 19:49:00,
2014-01-03 14:50:00,31.5,12.6,30.43,NNE,14,3.0,5.0,45,0.00,,CLR,0.00,VWS V14.01,2014-01-03 19:50:00,
2014-01-03 14:54:00,31.6,12.7,30.43,NNE,15,1.0,2.0,45,0.00,,OVC095,0.00,VWS V14.01,2014-01-03 19:54:00,
2014-01-03 14:55:00,31.7,12.8,30.43,NNE,14,3.0,3.0,45,0.00,,CLR,0.00,VWS V14.01,2014-01-03 19:55:00,
2014-01-03 14:59:00,31.7,11.2,30.43,NNE,14,4.0,4.0,42,0.00,,OVC095,0.00,VWS V14.01,2014-01-03 19:59:00,
2014-01-03 15:00:00,31.7,11.2,30.43,NNE,15,2.0,4.0,42,0.00,,CLR,0.00,VWS V14.01,2014-01-03 20:00:00,
2014-01-03 15:04:00,31.6,12.2,30.42,NNE,14,5.0,7.0,44,0.00,,OVC095,0.00,VWS V14.01,2014-01-03 20:04:00,
2014-01-03 15:05:00,31.6,11.7,30.42,NNE,14,2.0,3.0,43,0.00,,CLR,0.00,VWS V14.01,2014-01-03 20:05:00,
2014-01-03 15:09:00,31.9,13.5,30.42,North,9,1.0,3.0,46,0.00,,OVC095,0.00,VWS V14.01,2014-01-03 20:09:00,
2014-01-03 15:10:00,32.0,12.6,30.42,North,9,1.0,3.0,44,0.00,,CLR,0.00,VWS V14.01,2014-01-03 20:10:00,
2014-01-03 15:14:00,32.1,11.6,30.42,North,8,2.0,2.0,42,0.00,,OVC095,0.00,VWS V14.01,2014-01-03 20:14:00,
2014-01-03 15:15:00,32.1,12.7,30.42,North,8,0.0,3.0,44,0.00,,CLR,0.00,VWS V14.01,2014-01-03 20:15:00,
2014-01-03 15:19:00,32.2,12.2,30.42,NNE,14,4.0,8.0,43,0.00,,OVC095,0.00,VWS V14.01,2014-01-03 20:19:00,
2014-01-03 15:20:00,32.2,12.2,30.42,NNE,14,4.0,4.0,43,0.00,,CLR,0.00,VWS V14.01,2014-01-03 20:20:00,
2014-01-03 15:24:00,32.2,11.7,30.42,NNE,14,3.0,8.0,42,0.00,,OVC095,0.00,VWS V14.01,2014-01-03 20:24:00,
2014-01-03 15:25:00,32.2,12.2,30.42,NNE,15,3.0,7.0,43,0.00,,CLR,0.00,VWS V14.01,2014-01-03 20:25:00,
2014-01-03 15:29:00,32.1,12.1,30.42,NNE,14,2.0,4.0,43,0.00,,OVC095,0.00,VWS V14.01,2014-01-03 20:29:00,
2014-01-03 15:30:00,32.1,12.1,30.42,NNE,14,2.0,4.0,43,0.00,,CLR,0.00,VWS V14.01,2014-01-03 20:30:00,
2014-01-03 15:34:00,32.2,12.8,30.42,NNE,15,0.0,3.0,44,0.00,,OVC095,0.00,VWS V14.01,2014-01-03 20:34:00,
2014-01-03 15:35:00,32.2,12.8,30.42,NNE,14,2.0,3.0,44,0.00,,CLR,0.00,VWS V14.01,2014-01-03 20:35:00,
2014-01-03 15:39:00,32.3,11.8,30.42,NNE,14,2.0,2.0,42,0.00,,OVC095,0.00,VWS V14.01,2014-01-03 20:39:00,
2014-01-03 15:40:00,32.3,12.3,30.42,NNE,13,3.0,3.0,43,0.00,,CLR,0.00,VWS V14.01,2014-01-03 20:40:00,
2014-01-03 15:44:00,32.3,12.8,30.41,NNE,14,0.0,2.0,44,0.00,,OVC095,0.00,VWS V14.01,2014-01-03 20:44:00,
2014-01-03 15:45:00,32.4,12.9,30.41,NNE,14,1.0,1.0,44,0.00,,CLR,0.00,VWS V14.01,2014-01-03 20:45:00,
2014-01-03 15:50:00,32.5,12.5,30.41,NNE,14,2.0,4.0,43,0.00,,OVC095,0.00,VWS V14.01,2014-01-03 20:50:00,
2014-01-03 15:55:00,32.6,12.6,30.41,NNE,14,2.0,3.0,43,0.00,,OVC095,0.00,VWS V14.01,2014-01-03 20:55:00,
2014-01-03 16:00:00,32.6,12.6,30.41,NNE,13,1.0,2.0,43,0.00,,OVC095,0.00,VWS V14.01,2014-01-03 21:00:00,
2014-01-03 16:05:00,32.6,12.6,30.41,NNE,14,1.0,2.0,43,0.00,,OVC095,0.00,VWS V14.01,2014-01-03 21:05:00,
2014-01-03 16:10:00,32.7,12.2,30.41,NNE,15,1.0,2.0,42,0.00,,OVC095,0.00,VWS V14.01,2014-01-03 21:10:00,
2014-01-03 16:15:00,32.8,12.2,30.41,NNE,14,2.0,8.0,42,0.00,,OVC095,0.00,VWS V14.01,2014-01-03 21:15:00,
2014-01-03 16:20:00,32.9,12.9,30.42,North,8,0.0,1.0,43,0.00,,OVC095,0.00,VWS V14.01,2014-01-03 21:20:00,
2014-01-03 16:25:00,32.9,11.2,30.42,North,8,0.0,1.0,40,0.00,,OVC095,0.00,VWS V14.01,2014-01-03 21:25:00,
2014-01-03 16:30:00,32.8,12.2,30.42,North,8,0.0,0.0,42,0.00,,OVC095,0.00,VWS V14.01,2014-01-03 21:30:00,
2014-01-03 16:35:00,32.8,11.7,30.42,North,9,0.0,1.0,41,0.00,,OVC095,0.00,VWS V14.01,2014-01-03 21:35:00,
2014-01-03 16:40:00,32.9,12.3,30.42,North,9,1.0,2.0,42,0.00,,OVC095,0.00,VWS V14.01,2014-01-03 21:40:00,
2014-01-03 16:45:00,32.8,11.7,30.42,North,8,0.0,1.0,41,0.00,,OVC095,0.00,VWS V14.01,2014-01-03 21:45:00,
2014-01-03 16:50:00,32.8,12.2,30.42,North,8,0.0,0.0,42,0.00,,OVC095,0.00,VWS V14.01,2014-01-03 21:50:00,
2014-01-03 16:55:00,32.8,11.7,30.42,North,8,3.0,3.0,41,0.00,,OVC095,0.00,VWS V14.01,2014-01-03 21:55:00,
2014-01-03 17:00:00,32.7,12.2,30.42,NNE,14,0.0,0.0,42,0.00,,OVC095,0.00,VWS V14.01,2014-01-03 22:00:00,
2014-01-03 17:05:00,32.6,12.6,30.42,NNE,14,1.0,3.0,43,0.00,,OVC095,0.00,VWS V14.01,2014-01-03 22:05:00,
2014-01-03 17:10:00,32.5,12.5,30.43,NNE,14,0.0,2.0,43,0.00,,OVC095,0.00,VWS V14.01,2014-01-03 22:10:00,
2014-01-03 17:15:00,32.4,11.9,30.43,NNE,14,0.0,0.0,42,0.00,,OVC095,0.00,VWS V14.01,2014-01-03 22:15:00,
2014-01-03 17:20:00,32.3,11.8,30.43,NNE,14,2.0,3.0,42,0.00,,OVC095,0.00,VWS V14.01,2014-01-03 22:20:00,
2014-01-03 17:25:00,32.1,12.7,30.43,NNE,14,2.0,2.0,44,0.00,,OVC095,0.00,VWS V14.01,2014-01-03 22:25:00,
2014-01-03 17:30:00,32.0,13.1,30.43,NNE,14,0.0,0.0,45,0.00,,OVC095,0.00,VWS V14.01,2014-01-03 22:30:00,
2014-01-03 17:35:00,31.7,14.7,30.43,NNE,16,0.0,0.0,49,0.00,,OVC095,0.00,VWS V14.01,2014-01-03 22:35:00,
2014-01-03 17:40:00,31.2,15.6,30.43,NNE,15,0.0,0.0,52,0.00,,OVC095,0.00,VWS V14.01,2014-01-03 22:40:00,
2014-01-03 17:45:00,29.9,15.7,30.43,NNE,16,1.0,1.0,55,0.00,,OVC095,0.00,VWS V14.01,2014-01-03 22:45:00,
2014-01-03 17:50:00,28.7,15.4,30.43,NNE,22,0.0,0.0,57,0.00,,OVC095,0.00,VWS V14.01,2014-01-03 22:50:00,
2014-01-03 17:55:00,28.5,14.8,30.43,NNE,18,0.0,0.0,56,0.00,,OVC095,0.00,VWS V14.01,2014-01-03 22:55:00,
2014-01-03 18:00:00,28.4,15.9,30.43,NNE,21,0.0,0.0,59,0.00,,OVC095,0.00,VWS V14.01,2014-01-03 23:00:00,
2014-01-03 18:05:00,28.3,15.8,30.44,NNE,23,0.0,0.0,59,0.00,,OVC095,0.00,VWS V14.01,2014-01-03 23:05:00,
2014-01-03 18:10:00,28.1,15.6,30.44,NNE,33,0.0,0.0,59,0.00,,OVC095,0.00,VWS V14.01,2014-01-03 23:10:00,
2014-01-03 18:15:00,28.0,16.3,30.44,NNE,31,0.0,0.0,61,0.00,,OVC095,0.00,VWS V14.01,2014-01-03 23:15:00,
2014-01-03 18:20:00,27.6,15.9,30.44,NNE,31,0.0,0.0,61,0.00,,OVC095,0.00,VWS V14.01,2014-01-03 23:20:00,
2014-01-03 18:25:00,27.0,16.1,30.43,NNE,28,0.0,0.0,63,0.00,,OVC095,0.00,VWS V14.01,2014-01-03 23:25:00,
2014-01-03 18:30:00,26.8,15.9,30.43,NNE,27,0.0,0.0,63,0.00,,OVC095,0.00,VWS V14.01,2014-01-03 23:30:00,
2014-01-03 18:35:00,26.7,16.2,30.44,NE,37,0.0,0.0,64,0.00,,OVC095,0.00,VWS V14.01,2014-01-03 23:35:00,
2014-01-03 18:40:00,26.7,15.4,30.43,NE,41,0.0,0.0,62,0.00,,OVC095,0.00,VWS V14.01,2014-01-03 23:40:00,
2014-01-03 18:45:00,26.6,16.1,30.43,NE,53,0.0,0.0,64,0.00,,OVC095,0.00,VWS V14.01,2014-01-03 23:45:00,
2014-01-03 18:50:00,26.3,16.1,30.43,NW,304,0.0,0.0,65,0.00,,OVC095,0.00,VWS V14.01,2014-01-03 23:50:00,
2014-01-03 18:55:00,26.9,15.6,30.43,NW,304,0.0,0.0,62,0.00,,OVC095,0.00,VWS V14.01,2014-01-03 23:55:00,
2014-01-03 19:00:00,26.9,16.7,30.43,NW,304,1.0,2.0,65,0.00,,CLR,0.00,VWS V14.01,2014-01-04 00:00:00,
2014-01-03 19:01:00,26.9,16.7,30.43,NW,304,2.0,2.0,65,0.00,,OVC095,0.00,VWS V14.01,2014-01-04 00:01:00,
2014-01-03 19:05:00,26.6,16.8,30.43,NW,304,0.0,0.0,66,0.00,,CLR,0.00,VWS V14.01,2014-01-04 00:05:00,
2014-01-03 19:06:00,26.6,16.8,30.43,NW,304,0.0,0.0,66,0.00,,OVC095,0.00,VWS V14.01,2014-01-04 00:06:00,
2014-01-03 19:10:00,26.3,15.8,30.43,NW,304,0.0,0.0,64,0.00,,CLR,0.00,VWS V14.01,2014-01-04 00:10:00,
2014-01-03 19:11:00,26.3,15.8,30.43,NW,304,0.0,0.0,64,0.00,,OVC095,0.00,VWS V14.01,2014-01-04 00:11:00,
2014-01-03 19:15:00,26.0,15.9,30.43,NW,304,0.0,0.0,65,0.00,,CLR,0.00,VWS V14.01,2014-01-04 00:15:00,
2014-01-03 19:16:00,26.0,15.9,30.43,NW,304,0.0,0.0,65,0.00,,OVC095,0.00,VWS V14.01,2014-01-04 00:16:00,
2014-01-03 19:18:00,25.8,16.0,30.43,NW,304,0.0,0.0,66,0.00,,OVC095,0.00,VWS V14.01,2014-01-04 00:18:00,
2014-01-03 19:20:00,25.7,16.6,30.43,NW,304,0.0,0.0,68,0.00,,CLR,0.00,VWS V14.01,2014-01-04 00:20:00,
2014-01-03 19:23:00,25.5,16.4,30.44,NW,304,0.0,0.0,68,0.00,,OVC095,0.00,VWS V14.01,2014-01-04 00:23:00,
2014-01-03 19:25:00,25.4,16.3,30.43,NW,304,0.0,0.0,68,0.00,,CLR,0.00,VWS V14.01,2014-01-04 00:25:00,
2014-01-03 19:28:00,25.3,16.6,30.44,NW,304,0.0,0.0,69,0.00,,OVC095,0.00,VWS V14.01,2014-01-04 00:28:00,
2014-01-03 19:30:00,25.3,16.2,30.44,NW,304,0.0,0.0,68,0.00,,CLR,0.00,VWS V14.01,2014-01-04 00:30:00,
2014-01-03 19:33:00,25.2,16.5,30.44,NW,304,0.0,0.0,69,0.00,,OVC095,0.00,VWS V14.01,2014-01-04 00:33:00,
2014-01-03 19:35:00,25.0,15.9,30.44,NW,304,0.0,0.0,68,0.00,,CLR,0.00,VWS V14.01,2014-01-04 00:35:00,
2014-01-03 19:38:00,24.7,15.7,30.44,NW,304,0.0,0.0,68,0.00,,OVC095,0.00,VWS V14.01,2014-01-04 00:38:00,
2014-01-03 19:40:00,24.5,15.1,30.44,NW,304,0.0,0.0,67,0.00,,CLR,0.00,VWS V14.01,2014-01-04 00:40:00,
2014-01-03 19:43:00,24.4,15.7,30.44,NW,304,0.0,0.0,69,0.00,,OVC095,0.00,VWS V14.01,2014-01-04 00:43:00,
2014-01-03 19:45:00,24.3,15.6,30.44,NW,304,0.0,0.0,69,0.00,,CLR,0.00,VWS V14.01,2014-01-04 00:45:00,
2014-01-03 19:48:00,24.3,15.6,30.43,NW,304,0.0,0.0,69,0.00,,OVC095,0.00,VWS V14.01,2014-01-04 00:48:00,
2014-01-03 19:50:00,24.3,15.9,30.43,NW,304,0.0,0.0,70,0.00,,CLR,0.00,VWS V14.01,2014-01-04 00:50:00,
2014-01-03 19:53:00,24.2,15.5,30.43,NW,304,0.0,0.0,69,0.00,,OVC095,0.00,VWS V14.01,2014-01-04 00:53:00,
2014-01-03 19:55:00,24.2,15.5,30.44,NW,304,0.0,0.0,69,0.00,,CLR,0.00,VWS V14.01,2014-01-04 00:55:00,
2014-01-03 19:58:00,24.1,15.4,30.43,NW,304,0.0,0.0,69,0.00,,OVC095,0.00,VWS V14.01,2014-01-04 00:58:00,
2014-01-03 20:00:00,24.0,15.0,30.43,NW,304,0.0,0.0,68,0.00,,CLR,0.00,VWS V14.01,2014-01-04 01:00:00,
2014-01-03 20:03:00,23.9,15.2,30.44,NW,304,0.0,0.0,69,0.00,,OVC095,0.00,VWS V14.01,2014-01-04 01:03:00,
2014-01-03 20:05:00,23.8,15.1,30.44,NW,304,0.0,0.0,69,0.00,,CLR,0.00,VWS V14.01,2014-01-04 01:05:00,
2014-01-03 20:08:00,23.7,15.0,30.44,NW,304,0.0,0.0,69,0.00,,OVC095,0.00,VWS V14.01,2014-01-04 01:08:00,
2014-01-03 20:10:00,23.7,15.0,30.44,NW,304,0.0,0.0,69,0.00,,CLR,0.00,VWS V14.01,2014-01-04 01:10:00,
2014-01-03 20:13:00,23.6,14.9,30.44,NW,304,0.0,0.0,69,0.00,,OVC095,0.00,VWS V14.01,2014-01-04 01:13:00,
2014-01-03 20:15:00,23.4,15.1,30.44,NW,304,0.0,0.0,70,0.00,,CLR,0.00,VWS V14.01,2014-01-04 01:15:00,
2014-01-03 20:18:00,23.1,14.8,30.44,NW,304,0.0,0.0,70,0.00,,OVC095,0.00,VWS V14.01,2014-01-04 01:18:00,
2014-01-03 20:20:00,23.0,15.0,30.44,NW,304,0.0,0.0,71,0.00,,CLR,0.00,VWS V14.01,2014-01-04 01:20:00,
2014-01-03 20:24:00,23.0,14.4,30.44,NW,304,0.0,0.0,69,0.00,,OVC095,0.00,VWS V14.01,2014-01-04 01:24:00,
2014-01-03 20:25:00,23.0,14.7,30.44,NW,304,0.0,0.0,70,0.00,,CLR,0.00,VWS V14.01,2014-01-04 01:25:00,
2014-01-03 20:29:00,23.0,14.7,30.44,NW,304,0.0,0.0,70,0.00,,OVC095,0.00,VWS V14.01,2014-01-04 01:29:00,
2014-01-03 20:30:00,23.0,15.0,30.44,NW,304,0.0,0.0,71,0.00,,CLR,0.00,VWS V14.01,2014-01-04 01:30:00,
2014-01-03 20:34:00,23.0,15.0,30.44,NW,304,0.0,0.0,71,0.00,,OVC095,0.00,VWS V14.01,2014-01-04 01:34:00,
2014-01-03 20:35:00,23.0,15.0,30.44,NW,304,0.0,0.0,71,0.00,,CLR,0.00,VWS V14.01,2014-01-04 01:35:00,
2014-01-03 20:39:00,23.0,15.0,30.44,NW,304,0.0,0.0,71,0.00,,OVC095,0.00,VWS V14.01,2014-01-04 01:39:00,
2014-01-03 20:40:00,23.0,15.3,30.44,NW,304,0.0,0.0,72,0.00,,CLR,0.00,VWS V14.01,2014-01-04 01:40:00,
2014-01-03 20:44:00,22.9,15.2,30.44,NW,304,0.0,0.0,72,0.00,,OVC095,0.00,VWS V14.01,2014-01-04 01:44:00,
2014-01-03 20:45:00,22.9,15.9,30.44,NW,304,0.0,0.0,74,0.00,,CLR,0.00,VWS V14.01,2014-01-04 01:45:00,
2014-01-03 20:49:00,22.8,15.5,30.44,NW,304,0.0,0.0,73,0.00,,OVC095,0.00,VWS V14.01,2014-01-04 01:49:00,
2014-01-03 20:50:00,22.7,15.4,30.44,NW,304,0.0,0.0,73,0.00,,CLR,0.00,VWS V14.01,2014-01-04 01:50:00,
2014-01-03 20:54:00,22.8,15.1,30.43,NW,304,0.0,0.0,72,0.00,,OVC095,0.00,VWS V14.01,2014-01-04 01:54:00,
2014-01-03 20:55:00,22.9,15.6,30.44,NW,304,0.0,0.0,73,0.00,,CLR,0.00,VWS V14.01,2014-01-04 01:55:00,
2014-01-03 20:59:00,22.8,15.5,30.43,NW,304,0.0,0.0,73,0.00,,OVC095,0.00,VWS V14.01,2014-01-04 01:59:00,
2014-01-03 21:00:00,22.8,15.8,30.43,NW,304,0.0,0.0,74,0.00,,CLR,0.00,VWS V14.01,2014-01-04 02:00:00,
2014-01-03 21:04:00,22.7,16.0,30.43,NW,304,0.0,0.0,75,0.00,,OVC095,0.00,VWS V14.01,2014-01-04 02:04:00,
2014-01-03 21:05:00,22.6,15.6,30.43,NW,304,0.0,0.0,74,0.00,,CLR,0.00,VWS V14.01,2014-01-04 02:05:00,
2014-01-03 21:09:00,22.7,15.4,30.43,NW,304,0.0,0.0,73,0.00,,OVC095,0.00,VWS V14.01,2014-01-04 02:09:00,
2014-01-03 21:10:00,23.0,16.0,30.43,NW,304,0.0,0.0,74,0.00,,CLR,0.00,VWS V14.01,2014-01-04 02:10:00,
2014-01-03 21:14:00,23.7,15.7,30.43,NW,304,0.0,0.0,71,0.00,,OVC095,0.00,VWS V14.01,2014-01-04 02:14:00,
2014-01-03 21:15:00,23.6,15.3,30.43,NW,304,0.0,0.0,70,0.00,,CLR,0.00,VWS V14.01,2014-01-04 02:15:00,
2014-01-03 21:19:00,23.4,15.4,30.43,NW,304,0.0,0.0,71,0.00,,OVC095,0.00,VWS V14.01,2014-01-04 02:19:00,
2014-01-03 21:20:00,23.3,15.6,30.43,NW,304,0.0,0.0,72,0.00,,CLR,0.00,VWS V14.01,2014-01-04 02:20:00,
2014-01-03 21:24:00,23.1,15.1,30.43,NW,304,0.0,0.0,71,0.00,,OVC095,0.00,VWS V14.01,2014-01-04 02:24:00,
2014-01-03 21:25:00,23.0,15.0,30.43,NW,304,0.0,0.0,71,0.00,,CLR,0.00,VWS V14.01,2014-01-04 02:25:00,
2014-01-03 21:29:00,22.7,14.7,30.43,NW,304,0.0,0.0,71,0.00,,OVC095,0.00,VWS V14.01,2014-01-04 02:29:00,
2014-01-03 21:30:00,22.5,14.9,30.44,NW,304,0.0,0.0,72,0.00,,CLR,0.00,VWS V14.01,2014-01-04 02:30:00,
2014-01-03 21:34:00,22.2,15.2,30.43,NW,304,0.0,0.0,74,0.00,,OVC095,0.00,VWS V14.01,2014-01-04 02:34:00,
2014-01-03 21:35:00,22.2,15.5,30.43,NW,304,0.0,0.0,75,0.00,,CLR,0.00,VWS V14.01,2014-01-04 02:35:00,
2014-01-03 21:39:00,22.0,15.6,30.43,NW,304,0.0,0.0,76,0.00,,OVC095,0.00,VWS V14.01,2014-01-04 02:39:00,
2014-01-03 21:40:00,22.0,15.3,30.43,NW,304,0.0,0.0,75,0.00,,CLR,0.00,VWS V14.01,2014-01-04 02:40:00,
2014-01-03 21:44:00,21.9,14.9,30.43,WNW,303,0.0,0.0,74,0.00,,OVC095,0.00,VWS V14.01,2014-01-04 02:44:00,
2014-01-03 21:45:00,21.8,14.8,30.43,NW,304,0.0,0.0,74,0.00,,CLR,0.00,VWS V14.01,2014-01-04 02:45:00,
2014-01-03 21:49:00,21.8,15.1,30.43,NW,304,0.0,0.0,75,0.00,,OVC095,0.00,VWS V14.01,2014-01-04 02:49:00,
2014-01-03 21:50:00,21.7,15.0,30.43,NW,304,0.0,0.0,75,0.00,,CLR,0.00,VWS V14.01,2014-01-04 02:50:00,
2014-01-03 21:54:00,21.7,15.3,30.43,NW,304,0.0,0.0,76,0.00,,OVC095,0.00,VWS V14.01,2014-01-04 02:54:00,
2014-01-03 21:55:00,21.6,15.2,30.43,NW,304,0.0,0.0,76,0.00,,CLR,0.00,VWS V14.01,2014-01-04 02:55:00,
2014-01-03 21:57:00,21.5,15.1,30.43,NW,304,0.0,0.0,76,0.00,,OVC095,0.00,VWS V14.01,2014-01-04 02:57:00,
2014-01-03 22:00:00,21.5,15.1,30.43,NW,304,0.0,0.0,76,0.00,,CLR,0.00,VWS V14.01,2014-01-04 03:00:00,
2014-01-03 22:02:00,21.5,15.1,30.42,NW,304,0.0,0.0,76,0.00,,OVC095,0.00,VWS V14.01,2014-01-04 03:02:00,
2014-01-03 22:05:00,21.3,14.9,30.42,NW,304,0.0,0.0,76,0.00,,CLR,0.00,VWS V14.01,2014-01-04 03:05:00,
2014-01-03 22:07:00,21.2,14.5,30.42,NW,304,0.0,0.0,75,0.00,,OVC095,0.00,VWS V14.01,2014-01-04 03:07:00,
2014-01-03 22:10:00,21.2,14.5,30.42,NW,304,0.0,0.0,75,0.00,,CLR,0.00,VWS V14.01,2014-01-04 03:10:00,
2014-01-03 22:12:00,21.2,14.5,30.42,NW,304,0.0,0.0,75,0.00,,OVC095,0.00,VWS V14.01,2014-01-04 03:12:00,
2014-01-03 22:15:00,21.2,15.1,30.43,NW,304,0.0,0.0,77,0.00,,CLR,0.00,VWS V14.01,2014-01-04 03:15:00,
2014-01-03 22:17:00,21.1,15.0,30.43,NW,304,0.0,0.0,77,0.00,,OVC095,0.00,VWS V14.01,2014-01-04 03:17:00,
2014-01-03 22:20:00,21.1,15.3,30.43,NW,304,0.0,0.0,78,0.00,,CLR,0.00,VWS V14.01,2014-01-04 03:20:00,
2014-01-03 22:22:00,21.1,15.3,30.43,NW,304,0.0,0.0,78,0.00,,OVC095,0.00,VWS V14.01,2014-01-04 03:22:00,
2014-01-03 22:25:00,21.0,15.2,30.43,NW,304,0.0,0.0,78,0.00,,CLR,0.00,VWS V14.01,2014-01-04 03:25:00,
2014-01-03 22:27:00,20.9,14.8,30.43,NW,304,0.0,0.0,77,0.00,,OVC095,0.00,VWS V14.01,2014-01-04 03:27:00,
2014-01-03 22:30:00,20.9,14.8,30.43,NW,304,0.0,0.0,77,0.00,,CLR,0.00,VWS V14.01,2014-01-04 03:30:00,
2014-01-03 22:32:00,20.9,14.8,30.43,NW,304,0.0,0.0,77,0.00,,OVC095,0.00,VWS V14.01,2014-01-04 03:32:00,
2014-01-03 22:35:00,20.9,14.8,30.43,NW,304,0.0,0.0,77,0.00,,CLR,0.00,VWS V14.01,2014-01-04 03:35:00,
2014-01-03 22:38:00,20.9,14.8,30.43,NW,304,0.0,0.0,77,0.00,,OVC095,0.00,VWS V14.01,2014-01-04 03:38:00,
2014-01-03 22:40:00,20.9,14.5,30.43,NW,304,0.0,0.0,76,0.00,,CLR,0.00,VWS V14.01,2014-01-04 03:40:00,
2014-01-03 22:43:00,20.9,14.5,30.43,NW,304,0.0,0.0,76,0.00,,OVC095,0.00,VWS V14.01,2014-01-04 03:43:00,
2014-01-03 22:45:00,20.9,14.8,30.43,NW,304,0.0,0.0,77,0.00,,CLR,0.00,VWS V14.01,2014-01-04 03:45:00,
2014-01-03 22:48:00,20.9,14.8,30.43,NW,304,0.0,0.0,77,0.00,,OVC095,0.00,VWS V14.01,2014-01-04 03:48:00,
2014-01-03 22:50:00,20.8,14.7,30.43,NW,304,0.0,0.0,77,0.00,,CLR,0.00,VWS V14.01,2014-01-04 03:50:00,
2014-01-03 22:53:00,20.8,14.7,30.43,NW,304,0.0,0.0,77,0.00,,OVC095,0.00,VWS V14.01,2014-01-04 03:53:00,
2014-01-03 22:55:00,20.6,14.6,30.43,NW,304,0.0,0.0,77,0.00,,CLR,0.00,VWS V14.01,2014-01-04 03:55:00,
2014-01-03 22:58:00,20.4,14.4,30.43,NW,304,0.0,0.0,77,0.00,,OVC095,0.00,VWS V14.01,2014-01-04 03:58:00,
2014-01-03 23:00:00,20.3,14.6,30.43,NW,304,0.0,0.0,78,0.00,,CLR,0.00,VWS V14.01,2014-01-04 04:00:00,
2014-01-03 23:03:00,20.3,14.6,30.43,NW,304,0.0,0.0,78,0.00,,OVC095,0.00,VWS V14.01,2014-01-04 04:03:00,
2014-01-03 23:05:00,20.3,14.6,30.43,NW,304,0.0,0.0,78,0.00,,CLR,0.00,VWS V14.01,2014-01-04 04:05:00,
2014-01-03 23:08:00,20.3,14.6,30.43,NW,304,0.0,0.0,78,0.00,,OVC095,0.00,VWS V14.01,2014-01-04 04:08:00,
2014-01-03 23:10:00,20.2,14.7,30.43,NW,304,0.0,0.0,79,0.00,,CLR,0.00,VWS V14.01,2014-01-04 04:10:00,
2014-01-03 23:13:00,20.2,14.4,30.43,NW,304,0.0,0.0,78,0.00,,OVC095,0.00,VWS V14.01,2014-01-04 04:13:00,
2014-01-03 23:15:00,20.3,14.8,30.43,NW,304,0.0,0.0,79,0.00,,CLR,0.00,VWS V14.01,2014-01-04 04:15:00,
2014-01-03 23:18:00,20.2,14.7,30.43,NW,304,0.0,0.0,79,0.00,,OVC095,0.00,VWS V14.01,2014-01-04 04:18:00,
2014-01-03 23:20:00,20.2,14.4,30.43,NW,304,0.0,0.0,78,0.00,,CLR,0.00,VWS V14.01,2014-01-04 04:20:00,
2014-01-03 23:23:00,20.2,14.4,30.43,NW,304,0.0,0.0,78,0.00,,OVC095,0.00,VWS V14.01,2014-01-04 04:23:00,
2014-01-03 23:25:00,20.2,14.7,30.43,NW,304,0.0,0.0,79,0.00,,CLR,0.00,VWS V14.01,2014-01-04 04:25:00,
2014-01-03 23:28:00,20.1,14.6,30.43,NW,304,0.0,0.0,79,0.00,,OVC095,0.00,VWS V14.01,2014-01-04 04:28:00,
2014-01-03 23:30:00,20.0,14.6,30.43,NW,304,0.0,0.0,79,0.00,,CLR,0.00,VWS V14.01,2014-01-04 04:30:00,
2014-01-03 23:33:00,19.9,14.7,30.43,NW,304,0.0,0.0,80,0.00,,OVC095,0.00,VWS V14.01,2014-01-04 04:33:00,
2014-01-03 23:35:00,19.9,14.7,30.43,NW,304,0.0,0.0,80,0.00,,CLR,0.00,VWS V14.01,2014-01-04 04:35:00,
2014-01-03 23:38:00,19.8,14.6,30.43,NW,304,0.0,0.0,80,0.00,,OVC095,0.00,VWS V14.01,2014-01-04 04:38:00,
2014-01-03 23:40:00,19.8,14.6,30.43,NW,304,0.0,0.0,80,0.00,,CLR,0.00,VWS V14.01,2014-01-04 04:40:00,
2014-01-03 23:43:00,19.8,14.6,30.43,NW,304,0.0,0.0,80,0.00,,OVC095,0.00,VWS V14.01,2014-01-04 04:43:00,
2014-01-03 23:45:00,19.8,14.6,30.43,NW,304,0.0,0.0,80,0.00,,CLR,0.00,VWS V14.01,2014-01-04 04:45:00,
2014-01-03 23:48:00,19.8,14.9,30.43,NW,304,0.0,0.0,81,0.00,,OVC095,0.00,VWS V14.01,2014-01-04 04:48:00,
2014-01-03 23:50:00,19.8,14.9,30.43,NW,304,0.0,0.0,81,0.00,,CLR,0.00,VWS V14.01,2014-01-04 04:50:00,
2014-01-03 23:53:00,19.8,14.6,30.42,NW,304,0.0,0.0,80,0.00,,OVC095,0.00,VWS V14.01,2014-01-04 04:53:00,
2014-01-03 23:55:00,19.7,14.5,30.42,NW,304,0.0,0.0,80,0.00,,CLR,0.00,VWS V14.01,2014-01-04 04:55:00,
2014-01-03 23:58:00,19.7,14.5,30.42,NW,304,0.0,0.0,80,0.00,,OVC095,0.00,VWS V14.01,2014-01-04 04:58:00,